Time;durP1;ratioP1;P1;durP2;ratioP2;P2;SDS_P1;SDS_P2;PMS_P1;PMS_P2;Temp;Humidity;BMP_temperature;BMP_pressure;BME280_temperature;BME280_humidity;BME280_pressure;Samples;Min_cycle;Max_cycle;Signal;HPM_P1;HPM_P2
2023/06/24 00:00:11;;;;;;;110.90;71.40;;;;;;;-128.00;-1.00;-1.00;103294;1251;1002823;-77
2023/06/24 00:02:43;;;;;;;96.30;67.10;;;;;;;-128.00;-1.00;-1.00;103603;1251;1010524;-78
2023/06/24 00:05:10;;;;;;;87.10;73.60;;;;;;;-128.00;-1.00;-1.00;103626;1251;1011470;-76
2023/06/24 00:07:44;;;;;;;185.80;126.30;;;;;;;-128.00;-1.00;-1.00;103614;1252;1002854;-77
2023/06/24 00:10:12;;;;;;;73.40;48.00;;;;;;;-128.00;-1.00;-1.00;103570;1256;1013450;-77
2023/06/24 00:12:39;;;;;;;20.80;10.70;;;;;;;-128.00;-1.00;-1.00;103554;1251;1012672;-84
2023/06/24 00:15:08;;;;;;;22.00;14.00;;;;;;;-128.00;-1.00;-1.00;103588;1251;1002618;-78
2023/06/24 00:17:36;;;;;;;10.00;6.00;;;;;;;-128.00;-1.00;-1.00;103651;1251;1011886;-79
2023/06/24 00:20:08;;;;;;;13.30;6.10;;;;;;;-128.00;-1.00;-1.00;103542;1251;1002999;-77
2023/06/24 00:22:36;;;;;;;8.50;5.30;;;;;;;-128.00;-1.00;-1.00;103528;1256;1012711;-81
2023/06/24 00:25:02;;;;;;;12.40;5.50;;;;;;;-128.00;-1.00;-1.00;103493;1251;1004274;-77
2023/06/24 00:27:29;;;;;;;12.60;5.60;;;;;;;-128.00;-1.00;-1.00;103555;1252;1003376;-77
2023/06/24 00:29:56;;;;;;;29.90;14.10;;;;;;;-128.00;-1.00;-1.00;103541;1253;1002412;-77
2023/06/24 00:32:23;;;;;;;393.10;220.10;;;;;;;-128.00;-1.00;-1.00;103593;1256;1002345;-78
2023/06/24 00:34:50;;;;;;;46.60;23.70;;;;;;;-128.00;-1.00;-1.00;103320;1257;1002914;-78
2023/06/24 00:37:17;;;;;;;13.00;8.50;;;;;;;-128.00;-1.00;-1.00;103476;1252;1002829;-78
2023/06/24 00:39:44;;;;;;;12.90;6.50;;;;;;;-128.00;-1.00;-1.00;103486;1251;1002727;-77
2023/06/24 00:42:11;;;;;;;10.20;5.50;;;;;;;-128.00;-1.00;-1.00;103288;1251;1002344;-77
2023/06/24 00:44:39;;;;;;;9.40;5.70;;;;;;;-128.00;-1.00;-1.00;103747;1256;1002910;-78
2023/06/24 00:47:08;;;;;;;10.60;5.30;;;;;;;-128.00;-1.00;-1.00;103316;1260;1002419;-77
2023/06/24 00:49:34;;;;;;;14.30;6.70;;;;;;;-128.00;-1.00;-1.00;103309;1252;1012682;-76
2023/06/24 00:52:01;;;;;;;15.70;6.40;;;;;;;-128.00;-1.00;-1.00;103544;1251;1003088;-78
2023/06/24 00:54:31;;;;;;;20.00;6.60;;;;;;;-128.00;-1.00;-1.00;103206;1251;1002718;-78
2023/06/24 00:57:00;;;;;;;11.40;6.00;;;;;;;-128.00;-1.00;-1.00;103599;1251;1012923;-78
2023/06/24 00:59:29;;;;;;;18.40;6.10;;;;;;;-128.00;-1.00;-1.00;103267;1253;1012613;-77
2023/06/24 01:01:56;;;;;;;8.50;5.10;;;;;;;-128.00;-1.00;-1.00;103532;1251;1013941;-77
2023/06/24 01:04:24;;;;;;;9.50;5.30;;;;;;;-128.00;-1.00;-1.00;103261;1251;1002624;-78
2023/06/24 01:06:51;;;;;;;13.00;6.00;;;;;;;-128.00;-1.00;-1.00;103308;1253;1002151;-78
2023/06/24 01:09:19;;;;;;;15.50;7.00;;;;;;;-128.00;-1.00;-1.00;103485;1255;1002709;-78
2023/06/24 01:11:47;;;;;;;11.50;6.00;;;;;;;-128.00;-1.00;-1.00;103633;1256;1002407;-76
2023/06/24 01:14:13;;;;;;;13.00;6.10;;;;;;;-128.00;-1.00;-1.00;103590;1251;1003036;-77
2023/06/24 01:17:00;;;;;;;14.80;6.90;;;;;;;-128.00;-1.00;-1.00;103588;1255;1010515;-77
2023/06/24 01:19:33;;;;;;;17.20;6.90;;;;;;;-128.00;-1.00;-1.00;103267;1258;1010470;-77
2023/06/24 01:22:21;;;;;;;18.50;11.40;;;;;;;-128.00;-1.00;-1.00;103573;1256;1013683;-77
2023/06/24 01:24:56;;;;;;;12.60;7.40;;;;;;;-128.00;-1.00;-1.00;103353;1251;1012296;-77
2023/06/24 01:27:38;;;;;;;13.00;5.60;;;;;;;-128.00;-1.00;-1.00;103547;1251;1013157;-76
2023/06/24 01:30:27;;;;;;;13.60;5.90;;;;;;;-128.00;-1.00;-1.00;103591;1251;1010329;-76
2023/06/24 01:33:00;;;;;;;14.20;5.70;;;;;;;-128.00;-1.00;-1.00;103560;1251;1011052;-78
2023/06/24 01:35:29;;;;;;;11.20;5.70;;;;;;;-128.00;-1.00;-1.00;103577;1256;1013037;-78
2023/06/24 01:37:56;;;;;;;14.00;6.80;;;;;;;-128.00;-1.00;-1.00;103456;1259;1013323;-77
2023/06/24 01:40:28;;;;;;;20.40;6.20;;;;;;;-128.00;-1.00;-1.00;103567;1251;1002725;-77
2023/06/24 01:42:56;;;;;;;15.90;6.20;;;;;;;-128.00;-1.00;-1.00;103305;1253;1011169;-77
2023/06/24 01:45:27;;;;;;;12.30;5.90;;;;;;;-128.00;-1.00;-1.00;103660;1253;1011686;-82
2023/06/24 01:48:31;;;;;;;11.10;6.20;;;;;;;-128.00;-1.00;-1.00;103262;1261;1013936;-79
2023/06/24 01:51:00;;;;;;;18.20;8.20;;;;;;;-128.00;-1.00;-1.00;102778;1263;1013792;-78
2023/06/24 01:53:28;;;;;;;22.20;15.00;;;;;;;-128.00;-1.00;-1.00;102888;1261;1013808;-76
2023/06/24 01:55:57;;;;;;;13.20;6.50;;;;;;;-128.00;-1.00;-1.00;102969;1260;1010011;-77
2023/06/24 01:58:24;;;;;;;14.90;6.10;;;;;;;-128.00;-1.00;-1.00;102966;1261;1011070;-77
2023/06/24 02:00:52;;;;;;;10.30;5.60;;;;;;;-128.00;-1.00;-1.00;102941;1263;1002261;-79
2023/06/24 02:03:19;;;;;;;10.30;5.30;;;;;;;-128.00;-1.00;-1.00;102849;1265;1003050;-79
2023/06/24 02:05:46;;;;;;;15.70;8.40;;;;;;;-128.00;-1.00;-1.00;103035;1260;1002811;-78
2023/06/24 02:08:14;;;;;;;82.40;66.30;;;;;;;-128.00;-1.00;-1.00;104359;1260;1002616;-75
2023/06/24 02:10:41;;;;;;;58.20;35.70;;;;;;;-128.00;-1.00;-1.00;106251;1260;1002266;-76
2023/06/24 02:13:09;;;;;;;594.30;361.40;;;;;;;-128.00;-1.00;-1.00;106188;1260;1002473;-77
2023/06/24 02:15:36;;;;;;;454.20;266.20;;;;;;;-128.00;-1.00;-1.00;104711;1261;1002392;-77
2023/06/24 02:18:06;;;;;;;170.60;90.50;;;;;;;-128.00;-1.00;-1.00;102922;1260;1013371;-79
2023/06/24 02:20:33;;;;;;;96.40;48.30;;;;;;;-128.00;-1.00;-1.00;102724;1264;1002261;-84
2023/06/24 02:23:00;;;;;;;16.00;8.60;;;;;;;-128.00;-1.00;-1.00;102504;1263;1002807;-78
2023/06/24 02:25:27;;;;;;;20.30;10.10;;;;;;;-128.00;-1.00;-1.00;102623;1265;1002561;-79
2023/06/24 02:27:53;;;;;;;20.10;9.70;;;;;;;-128.00;-1.00;-1.00;102756;1261;1002204;-77
2023/06/24 02:30:23;;;;;;;16.40;10.40;;;;;;;-128.00;-1.00;-1.00;103193;1256;1002733;-77
2023/06/24 02:32:50;;;;;;;19.90;12.20;;;;;;;-128.00;-1.00;-1.00;103191;1255;1010035;-78
2023/06/24 02:35:18;;;;;;;20.00;13.30;;;;;;;-128.00;-1.00;-1.00;103097;1255;1002631;-77
2023/06/24 02:37:46;;;;;;;9.40;5.30;;;;;;;-128.00;-1.00;-1.00;103153;1256;1002861;-76
2023/06/24 02:40:12;;;;;;;14.00;6.00;;;;;;;-128.00;-1.00;-1.00;103307;1258;1003045;-75
2023/06/24 02:42:39;;;;;;;13.30;6.10;;;;;;;-128.00;-1.00;-1.00;103126;1256;1002670;-77
2023/06/24 02:45:07;;;;;;;13.50;5.90;;;;;;;-128.00;-1.00;-1.00;102942;1256;1002334;-77
2023/06/24 02:47:36;;;;;;;15.10;6.00;;;;;;;-128.00;-1.00;-1.00;103273;1256;1011196;-77
2023/06/24 02:50:04;;;;;;;9.60;5.30;;;;;;;-128.00;-1.00;-1.00;102958;1263;1002911;-79
2023/06/24 02:52:31;;;;;;;;;;;;;;;-128.00;-1.00;-1.00;103365;1257;1012660;-76
2023/06/24 02:54:58;;;;;;;15.70;5.30;;;;;;;-128.00;-1.00;-1.00;103289;1253;1002207;-78
2023/06/24 02:57:38;;;;;;;12.80;5.80;;;;;;;-128.00;-1.00;-1.00;103534;1251;1010424;-78
2023/06/24 03:00:33;;;;;;;13.90;5.70;;;;;;;-128.00;-1.00;-1.00;103537;1251;1011556;-73
2023/06/24 03:03:21;;;;;;;15.30;6.20;;;;;;;-128.00;-1.00;-1.00;103325;1258;1013181;-76
2023/06/24 03:05:53;;;;;;;12.80;5.60;;;;;;;-128.00;-1.00;-1.00;103517;1256;1013073;-79
2023/06/24 03:08:20;;;;;;;11.70;5.20;;;;;;;-128.00;-1.00;-1.00;103338;1251;1002914;-77
2023/06/24 03:10:51;;;;;;;11.60;5.40;;;;;;;-128.00;-1.00;-1.00;103216;1251;1010430;-79
2023/06/24 03:13:20;;;;;;;12.90;4.90;;;;;;;-128.00;-1.00;-1.00;103419;1253;1010642;-77
2023/06/24 03:15:53;;;;;;;12.90;5.20;;;;;;;-128.00;-1.00;-1.00;103317;1256;1013209;-76
2023/06/24 03:18:20;;;;;;;13.80;5.90;;;;;;;-128.00;-1.00;-1.00;103284;1257;1002691;-76
2023/06/24 03:20:47;;;;;;;13.30;5.90;;;;;;;-128.00;-1.00;-1.00;103289;1253;1002566;-77
2023/06/24 03:23:18;;;;;;;16.40;5.80;;;;;;;-128.00;-1.00;-1.00;103655;1251;1010407;-81
2023/06/24 03:25:45;;;;;;;11.10;5.70;;;;;;;-128.00;-1.00;-1.00;103303;1253;1003240;-76
2023/06/24 03:28:13;;;;;;;13.80;5.10;;;;;;;-128.00;-1.00;-1.00;103502;1256;1002482;-76
2023/06/24 03:30:46;;;;;;;11.20;5.80;;;;;;;-128.00;-1.00;-1.00;103542;1256;1012935;-76
2023/06/24 03:33:16;;;;;;;12.50;5.30;;;;;;;-128.00;-1.00;-1.00;103506;1256;1012467;-77
2023/06/24 03:35:43;;;;;;;13.10;5.90;;;;;;;-128.00;-1.00;-1.00;103352;1257;1003064;-77
2023/06/24 03:38:12;;;;;;;9.60;5.10;;;;;;;-128.00;-1.00;-1.00;103514;1256;1011018;-76
2023/06/24 03:40:40;;;;;;;13.00;6.20;;;;;;;-128.00;-1.00;-1.00;103525;1251;1002731;-78
2023/06/24 03:43:07;;;;;;;11.00;6.70;;;;;;;-128.00;-1.00;-1.00;103487;1256;1003051;-77
2023/06/24 03:45:33;;;;;;;15.80;8.30;;;;;;;-128.00;-1.00;-1.00;103231;1253;1002717;-76
2023/06/24 03:48:01;;;;;;;136.90;75.10;;;;;;;-128.00;-1.00;-1.00;103498;1251;1003052;-78
2023/06/24 03:50:30;;;;;;;371.60;243.50;;;;;;;-128.00;-1.00;-1.00;103390;1253;1011314;-78
2023/06/24 03:52:57;;;;;;;48.90;30.20;;;;;;;-128.00;-1.00;-1.00;103534;1256;1003289;-76
2023/06/24 03:55:24;;;;;;;81.60;60.00;;;;;;;-128.00;-1.00;-1.00;103295;1258;1002858;-78
2023/06/24 03:57:51;;;;;;;35.70;25.40;;;;;;;-128.00;-1.00;-1.00;103472;1251;1002401;-77
2023/06/24 04:00:20;;;;;;;18.20;10.50;;;;;;;-128.00;-1.00;-1.00;103348;1253;1003267;-78
2023/06/24 04:02:47;;;;;;;10.80;7.90;;;;;;;-128.00;-1.00;-1.00;103353;1251;1011377;-77
2023/06/24 04:05:14;;;;;;;12.00;7.40;;;;;;;-128.00;-1.00;-1.00;103349;1257;1002747;-78
2023/06/24 04:07:46;;;;;;;20.30;9.40;;;;;;;-128.00;-1.00;-1.00;103526;1256;1002634;-77
2023/06/24 04:10:13;;;;;;;74.80;52.70;;;;;;;-128.00;-1.00;-1.00;103439;1253;1014062;-77
2023/06/24 04:12:41;;;;;;;120.80;84.90;;;;;;;-128.00;-1.00;-1.00;103514;1253;1002992;-76
2023/06/24 04:15:08;;;;;;;125.50;78.90;;;;;;;-128.00;-1.00;-1.00;103594;1253;1002373;-77
2023/06/24 04:17:35;;;;;;;205.50;141.60;;;;;;;-128.00;-1.00;-1.00;103276;1257;1002308;-78
2023/06/24 04:20:08;;;;;;;90.70;62.00;;;;;;;-128.00;-1.00;-1.00;103651;1255;1002869;-78
2023/06/24 04:22:41;;;;;;;40.80;30.50;;;;;;;-128.00;-1.00;-1.00;103441;1251;1013599;-80
2023/06/24 04:25:08;;;;;;;32.70;27.00;;;;;;;-128.00;-1.00;-1.00;103357;1253;1010246;-79
2023/06/24 04:27:35;;;;;;;31.60;22.80;;;;;;;-128.00;-1.00;-1.00;103610;1253;1002447;-83
2023/06/24 04:30:03;;;;;;;18.00;10.00;;;;;;;-128.00;-1.00;-1.00;103553;1256;1002958;-80
2023/06/24 04:32:34;;;;;;;16.40;8.40;;;;;;;-128.00;-1.00;-1.00;103338;1261;1012463;-82
2023/06/24 04:35:01;;;;;;;13.50;7.20;;;;;;;-128.00;-1.00;-1.00;103589;1253;1003018;-80
2023/06/24 04:37:29;;;;;;;10.10;5.80;;;;;;;-128.00;-1.00;-1.00;103684;1251;1002976;-79
2023/06/24 04:39:57;;;;;;;11.80;5.80;;;;;;;-128.00;-1.00;-1.00;103811;1251;1002752;-79
2023/06/24 04:42:24;;;;;;;11.60;5.90;;;;;;;-128.00;-1.00;-1.00;103746;1251;1002616;-82
2023/06/24 04:44:50;;;;;;;10.00;6.20;;;;;;;-128.00;-1.00;-1.00;103795;1251;1003312;-81
2023/06/24 04:47:18;;;;;;;14.70;6.90;;;;;;;-128.00;-1.00;-1.00;103754;1251;1002590;-81
2023/06/24 04:49:45;;;;;;;13.60;6.80;;;;;;;-128.00;-1.00;-1.00;103790;1251;1002699;-86
2023/06/24 04:52:12;;;;;;;11.80;6.40;;;;;;;-128.00;-1.00;-1.00;103686;1251;1002946;-85
2023/06/24 04:54:39;;;;;;;13.50;7.20;;;;;;;-128.00;-1.00;-1.00;103894;1251;1002279;-81
2023/06/24 04:57:08;;;;;;;12.00;6.40;;;;;;;-128.00;-1.00;-1.00;103916;1251;1002778;-83
2023/06/24 04:59:38;;;;;;;15.60;6.70;;;;;;;-128.00;-1.00;-1.00;103866;1251;1013007;-82
2023/06/24 05:02:05;;;;;;;13.10;7.10;;;;;;;-128.00;-1.00;-1.00;103843;1251;1010864;-84
2023/06/24 05:04:33;;;;;;;12.10;7.00;;;;;;;-128.00;-1.00;-1.00;103574;1260;1010768;-83
2023/06/24 05:07:00;;;;;;;12.90;7.50;;;;;;;-128.00;-1.00;-1.00;103600;1259;1002522;-82
2023/06/24 05:09:27;;;;;;;22.30;8.50;;;;;;;-128.00;-1.00;-1.00;103775;1251;1003145;-82
2023/06/24 05:11:54;;;;;;;18.60;8.50;;;;;;;-128.00;-1.00;-1.00;103826;1251;1002713;-82
2023/06/24 05:14:21;;;;;;;19.00;8.40;;;;;;;-128.00;-1.00;-1.00;103785;1251;1003442;-82
2023/06/24 05:16:48;;;;;;;23.50;11.60;;;;;;;-128.00;-1.00;-1.00;103976;1251;1002416;-83
2023/06/24 05:19:16;;;;;;;14.10;6.80;;;;;;;-128.00;-1.00;-1.00;103920;1251;1003218;-82
2023/06/24 05:21:42;;;;;;;;;;;;;;;-128.00;-1.00;-1.00;103913;1251;1012477;-83
2023/06/24 05:24:09;;;;;;;15.70;8.20;;;;;;;-128.00;-1.00;-1.00;103771;1251;1002945;-83
2023/06/24 05:26:35;;;;;;;10.80;7.50;;;;;;;-128.00;-1.00;-1.00;103756;1251;1002813;-84
2023/06/24 05:29:03;;;;;;;14.50;8.00;;;;;;;-128.00;-1.00;-1.00;103781;1251;1004477;-83
2023/06/24 05:31:30;;;;;;;14.00;8.30;;;;;;;-128.00;-1.00;-1.00;103780;1251;1002995;-83
2023/06/24 05:33:56;;;;;;;47.90;34.10;;;;;;;-128.00;-1.00;-1.00;103692;1255;1002778;-81
2023/06/24 05:36:23;;;;;;;16.00;10.00;;;;;;;-128.00;-1.00;-1.00;103614;1251;1003630;-83
2023/06/24 05:38:50;;;;;;;23.30;13.30;;;;;;;-128.00;-1.00;-1.00;103796;1251;1003971;-82
2023/06/24 05:41:16;;;;;;;15.10;8.80;;;;;;;-128.00;-1.00;-1.00;103760;1251;1002829;-81
2023/06/24 05:43:43;;;;;;;14.90;11.70;;;;;;;-128.00;-1.00;-1.00;103585;1256;1002334;-84
2023/06/24 05:46:10;;;;;;;15.30;8.20;;;;;;;-128.00;-1.00;-1.00;103681;1251;1002543;-82
2023/06/24 05:48:37;;;;;;;29.90;26.80;;;;;;;-128.00;-1.00;-1.00;103734;1251;1002961;-82
2023/06/24 05:51:03;;;;;;;38.10;30.30;;;;;;;-128.00;-1.00;-1.00;103639;1256;1002910;-83
2023/06/24 05:53:31;;;;;;;33.10;27.30;;;;;;;-128.00;-1.00;-1.00;103425;1253;1002992;-84
2023/06/24 05:55:58;;;;;;;33.10;23.10;;;;;;;-128.00;-1.00;-1.00;103611;1251;1002553;-83
2023/06/24 05:58:24;;;;;;;33.00;25.40;;;;;;;-128.00;-1.00;-1.00;103761;1252;1002649;-84
2023/06/24 06:00:51;;;;;;;35.20;27.60;;;;;;;-128.00;-1.00;-1.00;103801;1251;1002560;-83
2023/06/24 06:03:19;;;;;;;26.30;17.90;;;;;;;-128.00;-1.00;-1.00;103809;1251;1002473;-82
2023/06/24 06:05:46;;;;;;;61.20;53.20;;;;;;;-128.00;-1.00;-1.00;103695;1256;1003051;-84
2023/06/24 06:08:13;;;;;;;17.00;8.80;;;;;;;-128.00;-1.00;-1.00;103746;1257;1002303;-81
2023/06/24 06:10:41;;;;;;;20.40;10.90;;;;;;;-128.00;-1.00;-1.00;103827;1251;1002490;-81
2023/06/24 06:13:08;;;;;;;14.30;7.80;;;;;;;-128.00;-1.00;-1.00;103565;1251;1002779;-88
2023/06/24 06:15:35;;;;;;;12.50;8.10;;;;;;;-128.00;-1.00;-1.00;103699;1251;1002973;-83
2023/06/24 06:18:02;;;;;;;16.80;9.50;;;;;;;-128.00;-1.00;-1.00;103666;1253;1002715;-81
2023/06/24 06:20:30;;;;;;;17.40;10.20;;;;;;;-128.00;-1.00;-1.00;103733;1255;1002885;-83
2023/06/24 06:22:57;;;;;;;21.60;9.10;;;;;;;-128.00;-1.00;-1.00;103685;1256;1003187;-87
2023/06/24 06:25:29;;;;;;;76.50;32.60;;;;;;;-128.00;-1.00;-1.00;103747;1255;1012631;-84
2023/06/24 06:27:55;;;;;;;34.40;31.10;;;;;;;-128.00;-1.00;-1.00;104161;1253;1002711;-82
2023/06/24 06:30:22;;;;;;;12.50;9.20;;;;;;;-128.00;-1.00;-1.00;104106;1253;1002569;-84
2023/06/24 06:32:50;;;;;;;12.90;7.60;;;;;;;-128.00;-1.00;-1.00;103797;1256;1002889;-82
2023/06/24 06:35:17;;;;;;;16.40;8.50;;;;;;;-128.00;-1.00;-1.00;103630;1255;1002228;-85
2023/06/24 06:37:46;;;;;;;14.60;9.00;;;;;;;-128.00;-1.00;-1.00;103551;1252;1002848;-84
2023/06/24 06:40:16;;;;;;;18.10;9.00;;;;;;;-128.00;-1.00;-1.00;103383;1254;1010708;-83
2023/06/24 06:42:43;;;;;;;31.60;14.00;;;;;;;-128.00;-1.00;-1.00;103514;1254;1002776;-82
2023/06/24 06:45:10;;;;;;;24.00;20.00;;;;;;;-128.00;-1.00;-1.00;103646;1259;1002433;-81
2023/06/24 06:47:37;;;;;;;33.50;26.90;;;;;;;-128.00;-1.00;-1.00;103576;1255;1002603;-81
2023/06/24 06:50:05;;;;;;;29.50;18.00;;;;;;;-128.00;-1.00;-1.00;103610;1253;1002574;-83
2023/06/24 06:52:32;;;;;;;13.30;9.40;;;;;;;-128.00;-1.00;-1.00;103611;1252;1002718;-81
2023/06/24 06:54:58;;;;;;;12.90;7.40;;;;;;;-128.00;-1.00;-1.00;103623;1253;1002763;-82
2023/06/24 06:57:25;;;;;;;14.30;8.60;;;;;;;-128.00;-1.00;-1.00;103684;1253;1002798;-81
2023/06/24 06:59:55;;;;;;;16.40;9.20;;;;;;;-128.00;-1.00;-1.00;103550;1253;1012969;-84
2023/06/24 07:02:22;;;;;;;11.10;8.60;;;;;;;-128.00;-1.00;-1.00;103632;1253;1002756;-80
2023/06/24 07:04:50;;;;;;;31.10;20.60;;;;;;;-128.00;-1.00;-1.00;103706;1255;1002972;-82
2023/06/24 07:07:17;;;;;;;385.60;236.30;;;;;;;-128.00;-1.00;-1.00;103522;1259;1011798;-82
2023/06/24 07:09:44;;;;;;;188.50;109.40;;;;;;;-128.00;-1.00;-1.00;103441;1259;1002944;-85
2023/06/24 07:12:10;;;;;;;15.00;9.70;;;;;;;-128.00;-1.00;-1.00;103829;1255;1002451;-84
2023/06/24 07:14:38;;;;;;;152.20;94.10;;;;;;;-128.00;-1.00;-1.00;103838;1253;1002946;-83
2023/06/24 07:17:07;;;;;;;39.60;26.30;;;;;;;-128.00;-1.00;-1.00;103950;1253;1010221;-81
2023/06/24 07:19:34;;;;;;;16.60;8.80;;;;;;;-128.00;-1.00;-1.00;103715;1259;1002885;-84
2023/06/24 07:22:01;;;;;;;59.00;35.60;;;;;;;-128.00;-1.00;-1.00;103755;1255;1003064;-83
2023/06/24 07:24:28;;;;;;;32.10;21.40;;;;;;;-128.00;-1.00;-1.00;103944;1256;1002772;-85
2023/06/24 07:26:55;;;;;;;80.80;61.60;;;;;;;-128.00;-1.00;-1.00;103991;1251;1002918;-80
2023/06/24 07:29:22;;;;;;;20.20;13.70;;;;;;;-128.00;-1.00;-1.00;103831;1253;1002466;-82
2023/06/24 07:31:49;;;;;;;21.90;12.80;;;;;;;-128.00;-1.00;-1.00;103848;1251;1002464;-83
2023/06/24 07:34:16;;;;;;;16.40;10.40;;;;;;;-128.00;-1.00;-1.00;103857;1256;1002574;-81
2023/06/24 07:36:43;;;;;;;13.00;8.80;;;;;;;-128.00;-1.00;-1.00;103747;1256;1002426;-80
2023/06/24 07:39:10;;;;;;;16.30;9.80;;;;;;;-128.00;-1.00;-1.00;103877;1251;1002631;-84
2023/06/24 07:41:36;;;;;;;17.20;11.50;;;;;;;-128.00;-1.00;-1.00;103685;1254;1002682;-84
2023/06/24 07:44:04;;;;;;;16.60;9.30;;;;;;;-128.00;-1.00;-1.00;103656;1253;1002652;-83
2023/06/24 07:46:31;;;;;;;18.50;10.30;;;;;;;-128.00;-1.00;-1.00;103828;1253;1002620;-77
2023/06/24 07:48:58;;;;;;;17.40;10.40;;;;;;;-128.00;-1.00;-1.00;106687;1255;1002353;-78
2023/06/24 07:51:24;;;;;;;19.70;10.30;;;;;;;-128.00;-1.00;-1.00;106652;1251;1002627;-79
2023/06/24 07:53:51;;;;;;;12.20;8.90;;;;;;;-128.00;-1.00;-1.00;105720;1251;1002525;-78
2023/06/24 07:56:18;;;;;;;19.20;11.30;;;;;;;-128.00;-1.00;-1.00;103528;1251;1002901;-81
2023/06/24 07:58:47;;;;;;;16.80;11.90;;;;;;;-128.00;-1.00;-1.00;103515;1256;1012781;-77
2023/06/24 08:01:14;;;;;;;18.40;9.80;;;;;;;-128.00;-1.00;-1.00;103578;1252;1004738;-77
2023/06/24 08:03:40;;;;;;;16.20;10.50;;;;;;;-128.00;-1.00;-1.00;103523;1253;1002523;-77
2023/06/24 08:06:07;;;;;;;12.90;9.70;;;;;;;-128.00;-1.00;-1.00;103558;1253;1003034;-76
2023/06/24 08:08:35;;;;;;;16.70;10.50;;;;;;;-128.00;-1.00;-1.00;103592;1252;1002856;-77
2023/06/24 08:11:03;;;;;;;14.30;9.50;;;;;;;-128.00;-1.00;-1.00;103291;1260;1003052;-77
2023/06/24 08:13:30;;;;;;;17.60;9.90;;;;;;;-128.00;-1.00;-1.00;103321;1259;1002630;-76
2023/06/24 08:15:57;;;;;;;14.10;10.10;;;;;;;-128.00;-1.00;-1.00;103538;1254;1002530;-76
2023/06/24 08:18:24;;;;;;;17.70;10.50;;;;;;;-128.00;-1.00;-1.00;103585;1256;1002756;-76
2023/06/24 08:20:50;;;;;;;15.50;9.10;;;;;;;-128.00;-1.00;-1.00;103697;1251;1005116;-78
2023/06/24 08:23:17;;;;;;;14.40;10.50;;;;;;;-128.00;-1.00;-1.00;103609;1256;1002544;-75
2023/06/24 08:25:44;;;;;;;17.60;9.30;;;;;;;-128.00;-1.00;-1.00;103582;1256;1002856;-77
2023/06/24 08:28:11;;;;;;;14.60;10.40;;;;;;;-128.00;-1.00;-1.00;103523;1253;1002736;-75
2023/06/24 08:30:38;;;;;;;15.90;10.00;;;;;;;-128.00;-1.00;-1.00;103516;1254;1004630;-76
2023/06/24 08:33:05;;;;;;;30.10;17.70;;;;;;;-128.00;-1.00;-1.00;103512;1253;1002572;-75
2023/06/24 08:35:32;;;;;;;16.50;9.80;;;;;;;-128.00;-1.00;-1.00;103460;1255;1003018;-77
2023/06/24 08:37:59;;;;;;;15.50;8.70;;;;;;;-128.00;-1.00;-1.00;103562;1253;1002268;-77
2023/06/24 08:40:26;;;;;;;10.20;8.50;;;;;;;-128.00;-1.00;-1.00;103500;1254;1002797;-79
2023/06/24 08:42:54;;;;;;;12.10;9.30;;;;;;;-128.00;-1.00;-1.00;103488;1256;1004119;-78
2023/06/24 08:45:21;;;;;;;37.90;22.70;;;;;;;-128.00;-1.00;-1.00;103571;1254;1011663;-77
2023/06/24 08:47:48;;;;;;;19.50;13.20;;;;;;;-128.00;-1.00;-1.00;103538;1255;1002785;-80
2023/06/24 08:50:15;;;;;;;11.30;8.00;;;;;;;-128.00;-1.00;-1.00;103493;1253;1002688;-75
2023/06/24 08:52:44;;;;;;;34.50;27.40;;;;;;;-128.00;-1.00;-1.00;103271;1257;1002709;-78
2023/06/24 08:55:13;;;;;;;11.90;7.70;;;;;;;-128.00;-1.00;-1.00;103420;1254;1010396;-79
2023/06/24 08:57:41;;;;;;;12.80;8.20;;;;;;;-128.00;-1.00;-1.00;103541;1258;1011131;-78
2023/06/24 09:00:11;;;;;;;10.40;7.70;;;;;;;-128.00;-1.00;-1.00;103555;1253;1002741;-78
2023/06/24 09:02:38;;;;;;;12.00;7.90;;;;;;;-128.00;-1.00;-1.00;103413;1254;1013434;-81
2023/06/24 09:05:06;;;;;;;15.10;8.90;;;;;;;-128.00;-1.00;-1.00;103585;1254;1004123;-84
2023/06/24 09:07:33;;;;;;;12.10;8.70;;;;;;;-128.00;-1.00;-1.00;103590;1253;1011009;-83
2023/06/24 09:10:00;;;;;;;9.60;7.90;;;;;;;-128.00;-1.00;-1.00;103696;1254;1002630;-80
2023/06/24 09:12:27;;;;;;;15.00;8.90;;;;;;;-128.00;-1.00;-1.00;103654;1256;1002647;-82
2023/06/24 09:14:54;;;;;;;39.40;32.00;;;;;;;-128.00;-1.00;-1.00;103726;1254;1004168;-85
2023/06/24 09:17:22;;;;;;;54.60;43.40;;;;;;;-128.00;-1.00;-1.00;103726;1255;1002615;-83
2023/06/24 09:19:49;;;;;;;54.10;39.20;;;;;;;-128.00;-1.00;-1.00;103629;1255;1002950;-83
2023/06/24 09:22:18;;;;;;;59.10;45.10;;;;;;;-128.00;-1.00;-1.00;103711;1253;1002869;-84
2023/06/24 09:24:46;;;;;;;81.50;57.30;;;;;;;-128.00;-1.00;-1.00;103752;1253;1003038;-85
2023/06/24 09:27:15;;;;;;;43.90;31.60;;;;;;;-128.00;-1.00;-1.00;103777;1252;1012218;-77
2023/06/24 09:29:44;;;;;;;117.00;97.60;;;;;;;-128.00;-1.00;-1.00;103672;1256;1003847;-84
2023/06/24 09:32:12;;;;;;;120.90;108.30;;;;;;;-128.00;-1.00;-1.00;103722;1252;1010184;-85
2023/06/24 09:34:40;;;;;;;30.80;20.50;;;;;;;-128.00;-1.00;-1.00;103759;1251;1011356;-84
2023/06/24 09:37:06;;;;;;;307.70;198.70;;;;;;;-128.00;-1.00;-1.00;103989;1256;1002853;-85
2023/06/24 09:39:37;;;;;;;308.60;200.70;;;;;;;-128.00;-1.00;-1.00;103715;1253;1004962;-83
2023/06/24 09:42:05;;;;;;;83.40;52.30;;;;;;;-128.00;-1.00;-1.00;103755;1251;1013032;-83
2023/06/24 09:44:32;;;;;;;20.00;12.90;;;;;;;-128.00;-1.00;-1.00;103782;1251;1002407;-81
2023/06/24 09:46:59;;;;;;;31.90;22.50;;;;;;;-128.00;-1.00;-1.00;103869;1251;1002458;-82
2023/06/24 09:49:25;;;;;;;174.80;157.50;;;;;;;-128.00;-1.00;-1.00;103727;1256;1003423;-83
2023/06/24 09:51:59;;;;;;;32.70;25.60;;;;;;;-128.00;-1.00;-1.00;103505;1251;1002217;-79
2023/06/24 09:54:28;;;;;;;132.30;88.80;;;;;;;-128.00;-1.00;-1.00;103620;1252;1012721;-83
2023/06/24 09:57:03;;;;;;;173.50;113.40;;;;;;;-128.00;-1.00;-1.00;103391;1251;1011652;-80
2023/06/24 09:59:33;;;;;;;40.40;27.90;;;;;;;-128.00;-1.00;-1.00;103482;1257;1002613;-81
2023/06/24 10:01:59;;;;;;;27.70;18.80;;;;;;;-128.00;-1.00;-1.00;103728;1251;1013652;-84
2023/06/24 10:04:26;;;;;;;61.80;41.60;;;;;;;-128.00;-1.00;-1.00;103493;1253;1003434;-82
2023/06/24 10:06:53;;;;;;;15.20;9.20;;;;;;;-128.00;-1.00;-1.00;103627;1254;1002471;-80
2023/06/24 10:09:20;;;;;;;276.00;194.90;;;;;;;-128.00;-1.00;-1.00;103409;1253;1002972;-85
2023/06/24 10:11:47;;;;;;;28.30;20.30;;;;;;;-128.00;-1.00;-1.00;103704;1256;1002690;-80
2023/06/24 10:14:15;;;;;;;89.20;71.80;;;;;;;-128.00;-1.00;-1.00;103762;1251;1002719;-83
2023/06/24 10:16:42;;;;;;;13.90;10.10;;;;;;;-128.00;-1.00;-1.00;103741;1257;1002885;-84
2023/06/24 10:19:10;;;;;;;15.90;10.00;;;;;;;-128.00;-1.00;-1.00;103416;1254;1012633;-81
2023/06/24 10:22:01;;;;;;;22.70;19.90;;;;;;;-128.00;-1.00;-1.00;103395;1251;1002313;-78
2023/06/24 10:24:32;;;;;;;39.10;30.60;;;;;;;-128.00;-1.00;-1.00;103327;1253;1010932;-83
2023/06/24 10:27:09;;;;;;;144.50;100.70;;;;;;;-128.00;-1.00;-1.00;103703;1257;1014489;-80
2023/06/24 10:29:38;;;;;;;248.30;162.30;;;;;;;-128.00;-1.00;-1.00;103157;1263;1012690;-80
2023/06/24 10:32:08;;;;;;;124.40;79.80;;;;;;;-128.00;-1.00;-1.00;103678;1256;1002474;-80
2023/06/24 10:34:37;;;;;;;456.10;412.10;;;;;;;-128.00;-1.00;-1.00;103322;1251;1009974;-83
2023/06/24 10:37:04;;;;;;;28.30;24.90;;;;;;;-128.00;-1.00;-1.00;103464;1253;1002759;-80
2023/06/24 10:39:51;;;;;;;15.40;12.30;;;;;;;-128.00;-1.00;-1.00;103338;1268;1002830;-81
2023/06/24 10:42:36;;;;;;;14.40;11.90;;;;;;;-128.00;-1.00;-1.00;103549;1256;1013198;-78
2023/06/24 10:45:09;;;;;;;20.70;14.70;;;;;;;-128.00;-1.00;-1.00;103525;1251;1013816;-76
2023/06/24 10:47:40;;;;;;;12.90;8.80;;;;;;;-128.00;-1.00;-1.00;103602;1251;1010889;-81
2023/06/24 10:50:07;;;;;;;16.00;8.90;;;;;;;-128.00;-1.00;-1.00;103607;1256;1011243;-82
2023/06/24 10:52:38;;;;;;;13.30;9.10;;;;;;;-128.00;-1.00;-1.00;103575;1256;1002639;-78
2023/06/24 10:55:07;;;;;;;15.30;9.00;;;;;;;-128.00;-1.00;-1.00;103281;1262;1012871;-78
2023/06/24 10:57:33;;;;;;;15.30;9.20;;;;;;;-128.00;-1.00;-1.00;103339;1258;1012922;-82
2023/06/24 11:00:01;;;;;;;14.00;9.50;;;;;;;-128.00;-1.00;-1.00;103284;1257;1002856;-78
2023/06/24 11:02:28;;;;;;;14.80;9.40;;;;;;;-128.00;-1.00;-1.00;103285;1257;1002415;-81
2023/06/24 11:05:00;;;;;;;16.30;12.30;;;;;;;-128.00;-1.00;-1.00;103232;1260;1002996;-85
2023/06/24 11:07:31;;;;;;;277.70;201.10;;;;;;;-128.00;-1.00;-1.00;103005;1256;1013177;-86
2023/06/24 11:10:05;;;;;;;34.10;23.60;;;;;;;-128.00;-1.00;-1.00;103396;1257;1013106;-82